sensor_id;sensor_type;location;lat;lon;timestamp;temperature;humidity
14873;DHT22;7528;48.576;19.122;2023-03-23T00:02:42;9.30;64.50
14873;DHT22;7528;48.576;19.122;2023-03-23T00:07:46;9.20;64.60
14873;DHT22;7528;48.576;19.122;2023-03-23T00:12:52;9.20;65.10
14873;DHT22;7528;48.576;19.122;2023-03-23T00:17:57;9.10;65.40
14873;DHT22;7528;48.576;19.122;2023-03-23T00:23:05;9.00;65.40
14873;DHT22;7528;48.576;19.122;2023-03-23T00:28:07;9.00;65.60
14873;DHT22;7528;48.576;19.122;2023-03-23T00:33:11;8.90;65.50
14873;DHT22;7528;48.576;19.122;2023-03-23T00:38:16;8.80;65.60
14873;DHT22;7528;48.576;19.122;2023-03-23T00:43:20;8.70;66.00
14873;DHT22;7528;48.576;19.122;2023-03-23T00:48:25;8.70;66.50
14873;DHT22;7528;48.576;19.122;2023-03-23T00:53:29;8.70;66.20
14873;DHT22;7528;48.576;19.122;2023-03-23T00:58:31;8.60;66.00
14873;DHT22;7528;48.576;19.122;2023-03-23T01:03:35;8.60;66.00
14873;DHT22;7528;48.576;19.122;2023-03-23T01:08:39;8.50;65.80
14873;DHT22;7528;48.576;19.122;2023-03-23T01:13:46;8.40;66.10
14873;DHT22;7528;48.576;19.122;2023-03-23T01:18:48;8.40;66.60
14873;DHT22;7528;48.576;19.122;2023-03-23T01:23:52;8.40;66.20
14873;DHT22;7528;48.576;19.122;2023-03-23T01:28:55;8.30;65.80
14873;DHT22;7528;48.576;19.122;2023-03-23T01:33:57;8.20;65.90
14873;DHT22;7528;48.576;19.122;2023-03-23T01:39:04;8.20;66.50
14873;DHT22;7528;48.576;19.122;2023-03-23T01:49:50;8.10;66.80
14873;DHT22;7528;48.576;19.122;2023-03-23T01:54:56;8.10;67.40
14873;DHT22;7528;48.576;19.122;2023-03-23T02:00:02;8.10;67.20
14873;DHT22;7528;48.576;19.122;2023-03-23T02:05:26;8.10;66.50
14873;DHT22;7528;48.576;19.122;2023-03-23T02:10:34;8.00;66.80
14873;DHT22;7528;48.576;19.122;2023-03-23T02:15:50;7.90;66.50
14873;DHT22;7528;48.576;19.122;2023-03-23T02:26:39;7.80;66.60
14873;DHT22;7528;48.576;19.122;2023-03-23T02:32:08;7.70;66.50
14873;DHT22;7528;48.576;19.122;2023-03-23T02:37:19;7.70;66.90
14873;DHT22;7528;48.576;19.122;2023-03-23T02:42:26;7.70;67.00
14873;DHT22;7528;48.576;19.122;2023-03-23T02:47:30;7.70;67.00
14873;DHT22;7528;48.576;19.122;2023-03-23T02:52:37;7.60;66.80
14873;DHT22;7528;48.576;19.122;2023-03-23T02:57:42;7.60;66.90
14873;DHT22;7528;48.576;19.122;2023-03-23T03:02:50;7.50;66.60
14873;DHT22;7528;48.576;19.122;2023-03-23T03:08:02;7.40;66.60
14873;DHT22;7528;48.576;19.122;2023-03-23T03:13:17;7.40;66.90
14873;DHT22;7528;48.576;19.122;2023-03-23T03:18:24;7.40;66.70
14873;DHT22;7528;48.576;19.122;2023-03-23T03:23:32;7.40;67.20
14873;DHT22;7528;48.576;19.122;2023-03-23T03:28:37;7.30;67.30
14873;DHT22;7528;48.576;19.122;2023-03-23T03:33:40;7.30;67.40
14873;DHT22;7528;48.576;19.122;2023-03-23T03:38:47;7.30;67.50
14873;DHT22;7528;48.576;19.122;2023-03-23T03:43:50;7.20;67.30
14873;DHT22;7528;48.576;19.122;2023-03-23T03:48:53;7.10;66.80
14873;DHT22;7528;48.576;19.122;2023-03-23T03:53:58;7.00;66.80
14873;DHT22;7528;48.576;19.122;2023-03-23T03:59:01;7.00;67.10
14873;DHT22;7528;48.576;19.122;2023-03-23T04:04:23;7.00;67.50
14873;DHT22;7528;48.576;19.122;2023-03-23T04:09:26;6.90;67.00
14873;DHT22;7528;48.576;19.122;2023-03-23T04:14:29;6.90;67.40
14873;DHT22;7528;48.576;19.122;2023-03-23T04:19:32;6.80;66.90
14873;DHT22;7528;48.576;19.122;2023-03-23T04:24:38;6.90;67.90
14873;DHT22;7528;48.576;19.122;2023-03-23T04:29:45;6.80;67.00
14873;DHT22;7528;48.576;19.122;2023-03-23T04:35:10;6.80;67.00
14873;DHT22;7528;48.576;19.122;2023-03-23T04:40:22;6.80;67.70
14873;DHT22;7528;48.576;19.122;2023-03-23T04:45:39;6.70;67.80
14873;DHT22;7528;48.576;19.122;2023-03-23T04:50:48;6.70;67.20
14873;DHT22;7528;48.576;19.122;2023-03-23T04:55:59;6.70;67.00
14873;DHT22;7528;48.576;19.122;2023-03-23T05:01:08;6.70;67.30
14873;DHT22;7528;48.576;19.122;2023-03-23T05:06:19;6.70;67.30
14873;DHT22;7528;48.576;19.122;2023-03-23T05:11:26;6.70;67.50
14873;DHT22;7528;48.576;19.122;2023-03-23T05:16:30;6.80;67.70
14873;DHT22;7528;48.576;19.122;2023-03-23T05:21:32;6.80;67.90
14873;DHT22;7528;48.576;19.122;2023-03-23T05:26:37;6.80;67.70
14873;DHT22;7528;48.576;19.122;2023-03-23T05:31:49;6.90;67.70
14873;DHT22;7528;48.576;19.122;2023-03-23T05:36:51;6.90;67.70
14873;DHT22;7528;48.576;19.122;2023-03-23T05:42:04;7.00;68.00
14873;DHT22;7528;48.576;19.122;2023-03-23T05:47:20;7.00;68.80
14873;DHT22;7528;48.576;19.122;2023-03-23T05:52:29;7.10;69.40
14873;DHT22;7528;48.576;19.122;2023-03-23T05:57:36;7.10;69.40
14873;DHT22;7528;48.576;19.122;2023-03-23T06:02:54;7.10;69.90
14873;DHT22;7528;48.576;19.122;2023-03-23T06:08:08;7.10;70.60
14873;DHT22;7528;48.576;19.122;2023-03-23T06:13:12;7.30;70.30
14873;DHT22;7528;48.576;19.122;2023-03-23T06:18:21;7.40;70.00
14873;DHT22;7528;48.576;19.122;2023-03-23T06:23:54;7.60;69.50
14873;DHT22;7528;48.576;19.122;2023-03-23T06:28:59;7.70;70.00
14873;DHT22;7528;48.576;19.122;2023-03-23T06:34:06;7.80;70.10
14873;DHT22;7528;48.576;19.122;2023-03-23T06:39:41;8.00;70.50
14873;DHT22;7528;48.576;19.122;2023-03-23T06:45:10;8.20;71.90
14873;DHT22;7528;48.576;19.122;2023-03-23T06:50:14;8.50;71.10
14873;DHT22;7528;48.576;19.122;2023-03-23T06:55:17;8.70;70.90
14873;DHT22;7528;48.576;19.122;2023-03-23T07:00:22;9.00;69.80
14873;DHT22;7528;48.576;19.122;2023-03-23T07:05:25;9.20;69.20
14873;DHT22;7528;48.576;19.122;2023-03-23T07:10:27;9.30;69.60
14873;DHT22;7528;48.576;19.122;2023-03-23T07:15:32;9.50;69.50
14873;DHT22;7528;48.576;19.122;2023-03-23T07:20:35;10.00;68.80
14873;DHT22;7528;48.576;19.122;2023-03-23T07:25:38;11.20;66.30
14873;DHT22;7528;48.576;19.122;2023-03-23T07:30:45;12.80;60.90
14873;DHT22;7528;48.576;19.122;2023-03-23T07:35:48;14.40;56.00
14873;DHT22;7528;48.576;19.122;2023-03-23T07:40:53;15.80;52.40
14873;DHT22;7528;48.576;19.122;2023-03-23T07:45:57;17.30;48.80
14873;DHT22;7528;48.576;19.122;2023-03-23T07:51:06;18.50;45.50
14873;DHT22;7528;48.576;19.122;2023-03-23T07:56:10;19.20;43.00
14873;DHT22;7528;48.576;19.122;2023-03-23T08:01:43;19.60;42.60
14873;DHT22;7528;48.576;19.122;2023-03-23T08:07:18;20.00;42.30
14873;DHT22;7528;48.576;19.122;2023-03-23T08:12:37;20.40;41.30
14873;DHT22;7528;48.576;19.122;2023-03-23T08:17:46;20.60;40.30
14873;DHT22;7528;48.576;19.122;2023-03-23T08:23:12;21.00;40.20
14873;DHT22;7528;48.576;19.122;2023-03-23T08:28:39;21.40;38.30
14873;DHT22;7528;48.576;19.122;2023-03-23T08:34:05;21.90;38.30
14873;DHT22;7528;48.576;19.122;2023-03-23T08:39:31;22.70;36.30
14873;DHT22;7528;48.576;19.122;2023-03-23T08:44:47;22.80;37.00
14873;DHT22;7528;48.576;19.122;2023-03-23T08:50:12;22.70;36.00
14873;DHT22;7528;48.576;19.122;2023-03-23T08:55:24;22.00;37.00
14873;DHT22;7528;48.576;19.122;2023-03-23T09:00:45;21.40;39.10
14873;DHT22;7528;48.576;19.122;2023-03-23T09:06:24;21.10;40.10
14873;DHT22;7528;48.576;19.122;2023-03-23T09:11:28;20.60;41.00
14873;DHT22;7528;48.576;19.122;2023-03-23T09:16:30;20.50;41.30
14873;DHT22;7528;48.576;19.122;2023-03-23T09:21:35;20.50;41.70
14873;DHT22;7528;48.576;19.122;2023-03-23T09:26:38;20.80;42.00
14873;DHT22;7528;48.576;19.122;2023-03-23T09:31:41;20.80;40.60
14873;DHT22;7528;48.576;19.122;2023-03-23T09:36:45;20.60;41.00
14873;DHT22;7528;48.576;19.122;2023-03-23T09:47:34;20.60;41.50
14873;DHT22;7528;48.576;19.122;2023-03-23T09:52:43;20.70;41.70
14873;DHT22;7528;48.576;19.122;2023-03-23T09:57:51;20.50;41.70
14873;DHT22;7528;48.576;19.122;2023-03-23T10:03:00;20.60;42.20
14873;DHT22;7528;48.576;19.122;2023-03-23T10:08:12;21.10;41.60
14873;DHT22;7528;48.576;19.122;2023-03-23T10:13:22;21.60;40.80
14873;DHT22;7528;48.576;19.122;2023-03-23T10:18:33;21.70;40.10
14873;DHT22;7528;48.576;19.122;2023-03-23T10:23:44;21.30;41.10
14873;DHT22;7528;48.576;19.122;2023-03-23T10:28:54;21.10;41.50
14873;DHT22;7528;48.576;19.122;2023-03-23T10:33:59;21.60;41.00
14873;DHT22;7528;48.576;19.122;2023-03-23T10:39:11;23.10;38.80
14873;DHT22;7528;48.576;19.122;2023-03-23T10:44:18;25.70;34.50
14873;DHT22;7528;48.576;19.122;2023-03-23T10:49:23;27.60;30.80
14873;DHT22;7528;48.576;19.122;2023-03-23T10:54:33;29.70;28.20
14873;DHT22;7528;48.576;19.122;2023-03-23T10:59:40;29.90;26.80
14873;DHT22;7528;48.576;19.122;2023-03-23T11:04:46;30.50;27.30
14873;DHT22;7528;48.576;19.122;2023-03-23T11:09:55;32.10;25.60
14873;DHT22;7528;48.576;19.122;2023-03-23T11:15:14;33.10;23.90
14873;DHT22;7528;48.576;19.122;2023-03-23T11:20:20;34.00;23.10
14873;DHT22;7528;48.576;19.122;2023-03-23T11:25:23;34.00;23.60
14873;DHT22;7528;48.576;19.122;2023-03-23T11:30:29;33.30;23.90
14873;DHT22;7528;48.576;19.122;2023-03-23T11:35:33;33.20;23.40
14873;DHT22;7528;48.576;19.122;2023-03-23T11:40:46;33.40;23.80
14873;DHT22;7528;48.576;19.122;2023-03-23T11:45:56;34.50;22.40
14873;DHT22;7528;48.576;19.122;2023-03-23T11:51:04;34.50;21.60
14873;DHT22;7528;48.576;19.122;2023-03-23T11:56:15;33.90;22.60
14873;DHT22;7528;48.576;19.122;2023-03-23T12:01:38;33.50;22.10
14873;DHT22;7528;48.576;19.122;2023-03-23T12:06:49;32.90;22.40
14873;DHT22;7528;48.576;19.122;2023-03-23T12:12:04;32.10;22.90
14873;DHT22;7528;48.576;19.122;2023-03-23T12:17:19;31.70;23.30
14873;DHT22;7528;48.576;19.122;2023-03-23T12:22:34;31.10;23.80
14873;DHT22;7528;48.576;19.122;2023-03-23T12:27:45;31.00;24.00
14873;DHT22;7528;48.576;19.122;2023-03-23T12:33:02;31.40;23.80
14873;DHT22;7528;48.576;19.122;2023-03-23T12:38:20;31.30;22.70
14873;DHT22;7528;48.576;19.122;2023-03-23T12:43:33;30.70;23.40
14873;DHT22;7528;48.576;19.122;2023-03-23T12:48:39;30.40;23.60
14873;DHT22;7528;48.576;19.122;2023-03-23T12:53:48;30.20;23.80
14873;DHT22;7528;48.576;19.122;2023-03-23T12:59:00;30.00;24.50
14873;DHT22;7528;48.576;19.122;2023-03-23T13:04:06;30.50;24.40
14873;DHT22;7528;48.576;19.122;2023-03-23T13:09:15;30.60;23.80
14873;DHT22;7528;48.576;19.122;2023-03-23T13:14:26;30.40;23.80
14873;DHT22;7528;48.576;19.122;2023-03-23T13:19:41;30.00;24.10
14873;DHT22;7528;48.576;19.122;2023-03-23T13:24:52;29.70;24.80
14873;DHT22;7528;48.576;19.122;2023-03-23T13:29:58;29.80;24.90
14873;DHT22;7528;48.576;19.122;2023-03-23T13:35:02;29.90;24.50
14873;DHT22;7528;48.576;19.122;2023-03-23T13:40:18;29.60;24.70
14873;DHT22;7528;48.576;19.122;2023-03-23T13:45:41;29.20;25.50
14873;DHT22;7528;48.576;19.122;2023-03-23T13:50:50;28.90;25.80
14873;DHT22;7528;48.576;19.122;2023-03-23T13:56:05;28.70;26.00
14873;DHT22;7528;48.576;19.122;2023-03-23T14:01:13;28.20;26.60
14873;DHT22;7528;48.576;19.122;2023-03-23T14:06:20;27.90;27.10
14873;DHT22;7528;48.576;19.122;2023-03-23T14:12:03;27.60;27.30
14873;DHT22;7528;48.576;19.122;2023-03-23T14:17:14;27.70;27.20
14873;DHT22;7528;48.576;19.122;2023-03-23T14:22:19;27.80;27.00
14873;DHT22;7528;48.576;19.122;2023-03-23T14:27:23;27.50;27.30
14873;DHT22;7528;48.576;19.122;2023-03-23T14:32:29;27.20;27.50
14873;DHT22;7528;48.576;19.122;2023-03-23T14:37:33;26.90;28.20
14873;DHT22;7528;48.576;19.122;2023-03-23T14:42:37;26.80;28.30
14873;DHT22;7528;48.576;19.122;2023-03-23T14:47:43;26.80;28.50
14873;DHT22;7528;48.576;19.122;2023-03-23T14:52:47;26.50;29.10
14873;DHT22;7528;48.576;19.122;2023-03-23T14:57:50;26.30;28.90
14873;DHT22;7528;48.576;19.122;2023-03-23T15:02:56;26.30;29.10
14873;DHT22;7528;48.576;19.122;2023-03-23T15:08:03;26.30;29.80
14873;DHT22;7528;48.576;19.122;2023-03-23T15:13:08;26.10;29.50
14873;DHT22;7528;48.576;19.122;2023-03-23T15:18:26;26.00;30.20
14873;DHT22;7528;48.576;19.122;2023-03-23T15:23:31;25.80;29.90
14873;DHT22;7528;48.576;19.122;2023-03-23T15:28:40;25.50;30.60
14873;DHT22;7528;48.576;19.122;2023-03-23T15:33:44;25.30;30.70
14873;DHT22;7528;48.576;19.122;2023-03-23T15:38:47;25.00;31.40
14873;DHT22;7528;48.576;19.122;2023-03-23T15:43:51;24.70;31.80
14873;DHT22;7528;48.576;19.122;2023-03-23T15:49:08;24.40;31.40
14873;DHT22;7528;48.576;19.122;2023-03-23T15:54:14;24.20;32.70
14873;DHT22;7528;48.576;19.122;2023-03-23T15:59:19;24.00;32.80
14873;DHT22;7528;48.576;19.122;2023-03-23T16:04:23;23.80;33.10
14873;DHT22;7528;48.576;19.122;2023-03-23T16:09:26;23.60;33.60
14873;DHT22;7528;48.576;19.122;2023-03-23T16:14:28;23.50;33.70
14873;DHT22;7528;48.576;19.122;2023-03-23T16:19:32;23.30;34.30
14873;DHT22;7528;48.576;19.122;2023-03-23T16:24:35;23.30;34.90
14873;DHT22;7528;48.576;19.122;2023-03-23T16:29:37;23.10;35.10
14873;DHT22;7528;48.576;19.122;2023-03-23T16:34:41;22.90;35.80
14873;DHT22;7528;48.576;19.122;2023-03-23T16:39:43;22.80;36.00
14873;DHT22;7528;48.576;19.122;2023-03-23T16:44:45;22.60;37.10
14873;DHT22;7528;48.576;19.122;2023-03-23T16:49:52;22.30;37.30
14873;DHT22;7528;48.576;19.122;2023-03-23T16:54:54;22.00;38.10
14873;DHT22;7528;48.576;19.122;2023-03-23T16:59:56;21.90;38.40
14873;DHT22;7528;48.576;19.122;2023-03-23T17:05:02;21.70;39.30
14873;DHT22;7528;48.576;19.122;2023-03-23T17:10:06;21.50;39.90
14873;DHT22;7528;48.576;19.122;2023-03-23T17:15:10;21.30;40.20
14873;DHT22;7528;48.576;19.122;2023-03-23T17:20:14;21.10;40.40
14873;DHT22;7528;48.576;19.122;2023-03-23T17:25:17;20.90;41.60
14873;DHT22;7528;48.576;19.122;2023-03-23T17:30:20;20.60;42.20
14873;DHT22;7528;48.576;19.122;2023-03-23T17:35:24;20.40;42.70
14873;DHT22;7528;48.576;19.122;2023-03-23T17:40:26;20.20;42.80
14873;DHT22;7528;48.576;19.122;2023-03-23T17:45:29;20.00;43.00
14873;DHT22;7528;48.576;19.122;2023-03-23T17:50:32;19.80;43.50
14873;DHT22;7528;48.576;19.122;2023-03-23T17:55:35;19.60;44.10
14873;DHT22;7528;48.576;19.122;2023-03-23T18:00:37;19.40;44.80
14873;DHT22;7528;48.576;19.122;2023-03-23T18:05:41;19.20;44.90
14873;DHT22;7528;48.576;19.122;2023-03-23T18:10:44;19.10;45.10
14873;DHT22;7528;48.576;19.122;2023-03-23T18:15:46;18.90;46.20
14873;DHT22;7528;48.576;19.122;2023-03-23T18:20:54;18.70;46.50
14873;DHT22;7528;48.576;19.122;2023-03-23T18:25:57;18.50;46.90
14873;DHT22;7528;48.576;19.122;2023-03-23T18:31:02;18.30;47.10
14873;DHT22;7528;48.576;19.122;2023-03-23T18:36:07;18.20;47.30
14873;DHT22;7528;48.576;19.122;2023-03-23T18:41:10;18.00;47.80
14873;DHT22;7528;48.576;19.122;2023-03-23T18:46:13;17.90;48.10
14873;DHT22;7528;48.576;19.122;2023-03-23T18:51:17;17.70;48.10
14873;DHT22;7528;48.576;19.122;2023-03-23T18:56:19;17.60;48.70
14873;DHT22;7528;48.576;19.122;2023-03-23T19:01:22;17.40;49.00
14873;DHT22;7528;48.576;19.122;2023-03-23T19:06:26;17.30;49.50
14873;DHT22;7528;48.576;19.122;2023-03-23T19:11:29;17.20;49.50
14873;DHT22;7528;48.576;19.122;2023-03-23T19:16:34;17.10;49.70
14873;DHT22;7528;48.576;19.122;2023-03-23T19:21:38;16.90;50.40
14873;DHT22;7528;48.576;19.122;2023-03-23T19:26:42;16.80;50.70
14873;DHT22;7528;48.576;19.122;2023-03-23T19:31:45;16.70;50.80
14873;DHT22;7528;48.576;19.122;2023-03-23T19:36:49;16.50;51.30
14873;DHT22;7528;48.576;19.122;2023-03-23T19:41:51;16.30;51.60
14873;DHT22;7528;48.576;19.122;2023-03-23T19:46:55;16.30;51.80
14873;DHT22;7528;48.576;19.122;2023-03-23T19:51:59;16.20;52.10
14873;DHT22;7528;48.576;19.122;2023-03-23T19:57:02;16.20;52.20
14873;DHT22;7528;48.576;19.122;2023-03-23T20:02:05;16.00;52.70
14873;DHT22;7528;48.576;19.122;2023-03-23T20:07:09;15.90;52.90
14873;DHT22;7528;48.576;19.122;2023-03-23T20:12:12;15.80;53.20
14873;DHT22;7528;48.576;19.122;2023-03-23T20:17:14;15.60;53.70
14873;DHT22;7528;48.576;19.122;2023-03-23T20:22:18;15.50;54.10
14873;DHT22;7528;48.576;19.122;2023-03-23T20:27:21;15.30;54.40
14873;DHT22;7528;48.576;19.122;2023-03-23T20:32:23;15.30;54.40
14873;DHT22;7528;48.576;19.122;2023-03-23T20:37:27;15.10;54.50
14873;DHT22;7528;48.576;19.122;2023-03-23T20:42:30;15.10;54.70
14873;DHT22;7528;48.576;19.122;2023-03-23T20:47:33;15.00;54.90
14873;DHT22;7528;48.576;19.122;2023-03-23T20:52:37;14.90;55.20
14873;DHT22;7528;48.576;19.122;2023-03-23T20:57:41;14.80;55.30
14873;DHT22;7528;48.576;19.122;2023-03-23T21:02:43;14.80;55.70
14873;DHT22;7528;48.576;19.122;2023-03-23T21:07:50;14.80;56.10
14873;DHT22;7528;48.576;19.122;2023-03-23T21:12:54;14.70;56.10
14873;DHT22;7528;48.576;19.122;2023-03-23T21:17:57;14.60;56.10
14873;DHT22;7528;48.576;19.122;2023-03-23T21:23:01;14.60;56.30
14873;DHT22;7528;48.576;19.122;2023-03-23T21:28:05;14.50;56.40
14873;DHT22;7528;48.576;19.122;2023-03-23T21:33:08;14.40;56.50
14873;DHT22;7528;48.576;19.122;2023-03-23T21:38:12;14.40;56.70
14873;DHT22;7528;48.576;19.122;2023-03-23T21:43:15;14.40;56.90
14873;DHT22;7528;48.576;19.122;2023-03-23T21:48:18;14.40;57.30
14873;DHT22;7528;48.576;19.122;2023-03-23T21:53:23;14.30;57.50
14873;DHT22;7528;48.576;19.122;2023-03-23T21:58:26;14.30;57.80
14873;DHT22;7528;48.576;19.122;2023-03-23T22:03:29;14.30;57.90
14873;DHT22;7528;48.576;19.122;2023-03-23T22:08:34;14.30;57.80
14873;DHT22;7528;48.576;19.122;2023-03-23T22:13:38;14.20;57.90
14873;DHT22;7528;48.576;19.122;2023-03-23T22:18:43;14.20;57.90
14873;DHT22;7528;48.576;19.122;2023-03-23T22:23:47;14.10;57.90
14873;DHT22;7528;48.576;19.122;2023-03-23T22:28:50;14.10;58.20
14873;DHT22;7528;48.576;19.122;2023-03-23T22:33:54;14.10;58.40
14873;DHT22;7528;48.576;19.122;2023-03-23T22:38:59;14.10;58.70
14873;DHT22;7528;48.576;19.122;2023-03-23T22:44:03;14.00;58.60
14873;DHT22;7528;48.576;19.122;2023-03-23T22:49:06;14.00;58.90
14873;DHT22;7528;48.576;19.122;2023-03-23T22:54:10;13.90;59.20
14873;DHT22;7528;48.576;19.122;2023-03-23T22:59:13;14.00;59.20
14873;DHT22;7528;48.576;19.122;2023-03-23T23:04:15;14.00;59.10
14873;DHT22;7528;48.576;19.122;2023-03-23T23:09:20;13.90;59.00
14873;DHT22;7528;48.576;19.122;2023-03-23T23:14:22;13.80;59.30
14873;DHT22;7528;48.576;19.122;2023-03-23T23:19:26;13.80;59.50
14873;DHT22;7528;48.576;19.122;2023-03-23T23:24:30;13.70;59.80
14873;DHT22;7528;48.576;19.122;2023-03-23T23:29:32;13.70;60.70
14873;DHT22;7528;48.576;19.122;2023-03-23T23:34:35;13.80;60.10
14873;DHT22;7528;48.576;19.122;2023-03-23T23:39:39;13.80;59.90
14873;DHT22;7528;48.576;19.122;2023-03-23T23:44:42;13.70;60.20
14873;DHT22;7528;48.576;19.122;2023-03-23T23:49:46;13.70;60.00
14873;DHT22;7528;48.576;19.122;2023-03-23T23:54:50;13.70;60.10
14873;DHT22;7528;48.576;19.122;2023-03-23T23:59:52;13.60;60.30
